createdAt,value
2019-02-14T00:00:02.697Z,1027.74
2019-02-14T00:01:02.891Z,1027.75
2019-02-14T00:02:02.700Z,1027.70
2019-02-14T00:03:02.683Z,1027.77
2019-02-14T00:04:02.653Z,1027.81
2019-02-14T00:05:02.643Z,1027.81
2019-02-14T00:06:02.637Z,1027.82
2019-02-14T00:07:02.635Z,1027.80
2019-02-14T00:08:02.620Z,1027.80
2019-02-14T00:09:02.598Z,1027.82
2019-02-14T00:10:02.602Z,1027.82
2019-02-14T00:11:02.588Z,1027.83
2019-02-14T00:12:02.594Z,1027.85
2019-02-14T00:13:02.560Z,1027.84
2019-02-14T00:14:02.546Z,1027.85
2019-02-14T00:15:02.537Z,1027.82
2019-02-14T00:16:02.518Z,1027.83
2019-02-14T00:17:02.536Z,1027.81
2019-02-14T00:18:02.515Z,1027.85
2019-02-14T00:19:02.488Z,1027.86
2019-02-14T00:20:02.483Z,1027.82
2019-02-14T00:21:02.466Z,1027.85
2019-02-14T00:22:02.456Z,1027.81
2019-02-14T00:23:02.462Z,1027.81
2019-02-14T00:24:02.430Z,1027.81
2019-02-14T00:25:02.426Z,1027.80
2019-02-14T00:26:02.414Z,1027.85
2019-02-14T00:27:02.396Z,1027.84
2019-02-14T00:28:02.415Z,1027.83
2019-02-14T00:29:02.375Z,1027.84
2019-02-14T00:30:02.369Z,1027.82
2019-02-14T00:31:02.372Z,1027.82
2019-02-14T00:32:02.353Z,1027.83
2019-02-14T00:33:02.359Z,1027.89
2019-02-14T00:34:02.331Z,1027.82
2019-02-14T00:35:02.309Z,1027.91
2019-02-14T00:36:02.294Z,1027.91
2019-02-14T00:37:02.286Z,1027.88
2019-02-14T00:38:02.297Z,1027.90
2019-02-14T00:39:02.262Z,1027.90
2019-02-14T00:40:02.252Z,1027.90
2019-02-14T00:41:02.245Z,1027.93
2019-02-14T00:42:02.232Z,1027.95
2019-02-14T00:43:02.241Z,1027.98
2019-02-14T00:44:02.209Z,1027.96
2019-02-14T00:45:02.203Z,1027.97
2019-02-14T00:46:02.184Z,1027.97
2019-02-14T00:47:02.171Z,1027.96
2019-02-14T00:48:02.175Z,1027.97
2019-02-14T00:49:02.169Z,1027.98
2019-02-14T00:50:02.140Z,1028.00
2019-02-14T00:51:02.129Z,1028.02
2019-02-14T00:52:02.125Z,1028.06
2019-02-14T00:53:02.128Z,1027.97
2019-02-14T00:54:02.098Z,1027.99
2019-02-14T00:55:02.088Z,1028.02
2019-02-14T00:56:02.072Z,1027.99
2019-02-14T00:57:02.061Z,1028.00
2019-02-14T00:58:02.097Z,1027.97
2019-02-14T00:59:02.039Z,1027.97
2019-02-14T01:00:02.045Z,1027.99
2019-02-14T01:01:02.017Z,1027.95
2019-02-14T01:02:02.005Z,1027.96
2019-02-14T01:03:01.993Z,1027.99
2019-02-14T01:04:02.004Z,1027.96
2019-02-14T01:05:01.970Z,1027.92
2019-02-14T01:06:02.835Z,1028.01
2019-02-14T01:07:01.952Z,1027.94
2019-02-14T01:08:01.939Z,1027.94
2019-02-14T01:09:01.954Z,1027.96
2019-02-14T01:10:01.927Z,1027.94
2019-02-14T01:11:01.925Z,1027.95
2019-02-14T01:12:01.891Z,1027.97
2019-02-14T01:13:01.881Z,1027.91
2019-02-14T01:14:01.893Z,1027.95
2019-02-14T01:15:01.876Z,1027.94
2019-02-14T01:16:01.855Z,1027.97
2019-02-14T01:17:01.906Z,1027.96
2019-02-14T01:18:01.819Z,1027.92
2019-02-14T01:19:01.861Z,1027.92
2019-02-14T01:20:01.803Z,1027.92
2019-02-14T01:21:01.803Z,1027.95
2019-02-14T01:22:01.790Z,1027.89
2019-02-14T01:23:01.768Z,1027.92
2019-02-14T01:24:01.773Z,1027.88
2019-02-14T01:25:01.765Z,1027.92
2019-02-14T01:26:01.734Z,1027.95
2019-02-14T01:27:01.733Z,1027.93
2019-02-14T01:28:01.714Z,1027.90
2019-02-14T01:29:01.758Z,1027.92
2019-02-14T01:30:01.695Z,1027.96
2019-02-14T01:31:01.689Z,1027.88
2019-02-14T01:32:01.671Z,1027.88
2019-02-14T01:33:01.664Z,1027.90
2019-02-14T01:34:01.677Z,1027.94
2019-02-14T01:35:01.650Z,1027.88
2019-02-14T01:36:01.634Z,1027.83
2019-02-14T01:37:01.615Z,1027.84
2019-02-14T01:38:01.607Z,1027.81
2019-02-14T01:39:01.620Z,1027.79
2019-02-14T01:40:01.584Z,1027.81
2019-02-14T01:41:01.567Z,1027.79
2019-02-14T01:42:01.564Z,1027.76
2019-02-14T01:43:01.554Z,1027.75
2019-02-14T01:44:01.573Z,1027.72
2019-02-14T01:45:01.539Z,1027.72
2019-02-14T01:46:01.514Z,1027.72
2019-02-14T01:47:01.502Z,1027.75
2019-02-14T01:48:01.492Z,1027.72
2019-02-14T01:49:01.482Z,1027.75
2019-02-14T01:50:01.485Z,1027.77
2019-02-14T01:51:01.459Z,1027.78
2019-02-14T01:52:01.446Z,1027.75
2019-02-14T01:53:01.432Z,1027.76
2019-02-14T01:54:01.428Z,1027.75
2019-02-14T01:55:01.428Z,1027.74
2019-02-14T01:56:01.401Z,1027.75
2019-02-14T01:57:01.388Z,1027.76
2019-02-14T01:58:01.376Z,1027.74
2019-02-14T01:59:01.365Z,1027.74
2019-02-14T02:00:01.378Z,1027.77
2019-02-14T02:01:01.348Z,1027.82
2019-02-14T02:02:01.329Z,1027.81
2019-02-14T02:03:01.324Z,1027.80
2019-02-14T02:04:01.308Z,1027.78
2019-02-14T02:05:01.315Z,1027.79
2019-02-14T02:06:01.285Z,1027.79
2019-02-14T02:07:01.275Z,1027.78
2019-02-14T02:08:01.262Z,1027.81
2019-02-14T02:09:01.258Z,1027.83
2019-02-14T02:10:01.258Z,1027.79
2019-02-14T02:11:01.224Z,1027.83
2019-02-14T02:12:01.216Z,1027.77
2019-02-14T02:13:01.208Z,1027.81
2019-02-14T02:14:01.198Z,1027.79
2019-02-14T02:15:01.211Z,1027.86
2019-02-14T02:16:01.168Z,1027.85
2019-02-14T02:17:01.160Z,1027.81
2019-02-14T02:18:01.211Z,1027.82
2019-02-14T02:19:01.136Z,1027.88
2019-02-14T02:20:01.147Z,1027.86
2019-02-14T02:21:01.113Z,1027.86
2019-02-14T02:22:01.100Z,1027.87
2019-02-14T02:23:01.097Z,1027.91
2019-02-14T02:24:01.081Z,1027.92
2019-02-14T02:25:01.084Z,1027.92
2019-02-14T02:26:01.054Z,1027.91
2019-02-14T02:27:01.042Z,1027.90
2019-02-14T02:28:01.044Z,1027.91
2019-02-14T02:29:01.018Z,1027.96
2019-02-14T02:30:01.058Z,1027.92
2019-02-14T02:31:01.009Z,1027.92
2019-02-14T02:32:00.983Z,1027.95
2019-02-14T02:33:00.986Z,1027.92
2019-02-14T02:34:00.969Z,1027.95
2019-02-14T02:35:00.956Z,1027.86
2019-02-14T02:36:00.967Z,1027.91
2019-02-14T02:37:00.932Z,1027.91
2019-02-14T02:38:00.920Z,1027.89
2019-02-14T02:39:00.909Z,1027.90
2019-02-14T02:40:00.896Z,1027.90
2019-02-14T02:41:00.903Z,1027.92
2019-02-14T02:42:00.881Z,1027.94
2019-02-14T02:43:00.866Z,1027.93
2019-02-14T02:44:00.850Z,1027.94
2019-02-14T02:45:00.842Z,1027.94
2019-02-14T02:46:00.854Z,1027.94
2019-02-14T02:47:00.821Z,1027.98
2019-02-14T02:48:00.807Z,1027.94
2019-02-14T02:49:00.796Z,1027.96
2019-02-14T02:50:00.783Z,1027.99
2019-02-14T02:51:00.804Z,1028.03
2019-02-14T02:52:00.813Z,1027.99
2019-02-14T02:53:00.792Z,1028.00
2019-02-14T02:54:00.743Z,1028.02
2019-02-14T02:55:00.726Z,1028.03
2019-02-14T02:56:00.733Z,1028.06
2019-02-14T02:57:00.749Z,1028.08
2019-02-14T02:58:00.695Z,1028.09
2019-02-14T02:59:00.688Z,1028.09
2019-02-14T03:00:00.683Z,1028.09
2019-02-14T03:01:00.686Z,1028.09
2019-02-14T03:02:00.684Z,1028.16
2019-02-14T03:03:00.633Z,1028.12
2019-02-14T03:04:00.626Z,1028.13
2019-02-14T03:05:00.610Z,1028.16
2019-02-14T03:06:08.606Z,1028.16
2019-02-14T03:07:01.603Z,1028.12
2019-02-14T03:08:00.582Z,1028.18
2019-02-14T03:09:00.579Z,1028.19
2019-02-14T03:10:00.569Z,1028.19
2019-02-14T03:11:00.568Z,1028.22
2019-02-14T03:12:00.539Z,1028.19
2019-02-14T03:13:00.524Z,1028.28
2019-02-14T03:14:00.525Z,1028.27
2019-02-14T03:15:00.509Z,1028.28
2019-02-14T03:16:00.514Z,1028.24
2019-02-14T03:17:00.482Z,1028.26
2019-02-14T03:18:00.464Z,1028.29
2019-02-14T03:19:01.335Z,1028.30
2019-02-14T03:20:00.448Z,1028.26
2019-02-14T03:21:00.453Z,1028.30
2019-02-14T03:22:00.420Z,1028.37
2019-02-14T03:23:00.411Z,1028.33
2019-02-14T03:24:00.411Z,1028.34
2019-02-14T03:25:00.382Z,1028.33
2019-02-14T03:26:00.399Z,1028.32
2019-02-14T03:27:00.366Z,1028.31
2019-02-14T03:28:00.379Z,1028.33
2019-02-14T03:29:00.348Z,1028.24
2019-02-14T03:30:00.429Z,1028.17
2019-02-14T03:31:00.360Z,1028.17
2019-02-14T03:32:00.321Z,1028.22
2019-02-14T03:33:00.315Z,1028.25
2019-02-14T03:34:00.292Z,1028.20
2019-02-14T03:35:00.287Z,1028.21
2019-02-14T03:36:00.260Z,1028.17
2019-02-14T03:37:00.272Z,1028.12
2019-02-14T03:38:00.244Z,1028.14
2019-02-14T03:39:00.237Z,1028.11
2019-02-14T03:40:00.227Z,1028.14
2019-02-14T03:41:00.207Z,1028.10
2019-02-14T03:42:00.217Z,1028.12
2019-02-14T03:43:00.182Z,1028.12
2019-02-14T03:44:00.180Z,1028.10
2019-02-14T03:45:00.304Z,1028.19
2019-02-14T03:46:00.146Z,1028.16
2019-02-14T03:47:00.174Z,1028.19
2019-02-14T03:48:00.125Z,1028.17
2019-02-14T03:49:00.119Z,1028.20
2019-02-14T03:50:00.274Z,1028.19
2019-02-14T03:51:00.109Z,1028.23
2019-02-14T03:52:00.095Z,1028.24
2019-02-14T03:53:00.071Z,1028.22
2019-02-14T03:54:00.068Z,1028.20
2019-02-14T03:55:00.100Z,1028.24
2019-02-14T03:56:00.052Z,1028.22
2019-02-14T03:57:00.039Z,1028.31
2019-02-14T03:58:00.014Z,1028.34
2019-02-14T03:59:00.010Z,1028.38
2019-02-14T03:59:59.989Z,1028.35
2019-02-14T04:01:00.230Z,1028.37
2019-02-14T04:02:00.000Z,1028.31
2019-02-14T04:02:59.953Z,1028.25
2019-02-14T04:03:59.951Z,1028.31
2019-02-14T04:04:59.931Z,1028.32
2019-02-14T04:05:59.923Z,1028.33
2019-02-14T04:06:59.920Z,1028.34
2019-02-14T04:07:59.916Z,1028.32
2019-02-14T04:08:59.887Z,1028.31
2019-02-14T04:09:59.874Z,1028.39
2019-02-14T04:10:59.878Z,1028.35
2019-02-14T04:11:59.853Z,1028.39
2019-02-14T04:12:59.860Z,1028.39
2019-02-14T04:13:59.827Z,1028.40
2019-02-14T04:14:59.822Z,1028.39
2019-02-14T04:15:59.841Z,1028.49
2019-02-14T04:16:59.792Z,1028.50
2019-02-14T04:17:59.797Z,1028.56
2019-02-14T04:18:59.770Z,1028.55
2019-02-14T04:19:59.760Z,1028.55
2019-02-14T04:20:59.751Z,1028.56
2019-02-14T04:21:59.736Z,1028.52
2019-02-14T04:22:59.748Z,1028.45
2019-02-14T04:23:59.713Z,1028.44
2019-02-14T04:24:59.704Z,1028.46
2019-02-14T04:25:59.692Z,1028.45
2019-02-14T04:26:59.683Z,1028.45
2019-02-14T04:27:59.685Z,1028.50
2019-02-14T04:28:59.666Z,1028.48
2019-02-14T04:29:59.647Z,1028.50
2019-02-14T04:30:59.652Z,1028.42
2019-02-14T04:31:59.624Z,1028.46
2019-02-14T04:32:59.630Z,1028.44
2019-02-14T04:33:59.597Z,1028.45
2019-02-14T04:34:59.588Z,1028.46
2019-02-14T04:35:59.580Z,1028.47
2019-02-14T04:36:59.562Z,1028.43
2019-02-14T04:37:59.577Z,1028.43
2019-02-14T04:38:59.550Z,1028.41
2019-02-14T04:39:59.548Z,1028.40
2019-02-14T04:40:59.515Z,1028.43
2019-02-14T04:41:59.509Z,1028.44
2019-02-14T04:42:59.522Z,1028.45
2019-02-14T04:43:59.488Z,1028.45
2019-02-14T04:44:59.481Z,1028.52
2019-02-14T04:45:59.466Z,1028.45
2019-02-14T04:46:59.446Z,1028.49
2019-02-14T04:47:59.459Z,1028.50
2019-02-14T04:48:59.428Z,1028.47
2019-02-14T04:49:59.422Z,1028.52
2019-02-14T04:50:59.427Z,1028.56
2019-02-14T04:51:59.395Z,1028.58
2019-02-14T04:52:59.410Z,1028.54
2019-02-14T04:53:59.376Z,1028.55
2019-02-14T04:54:59.362Z,1028.48
2019-02-14T04:55:59.351Z,1028.44
2019-02-14T04:56:59.338Z,1028.47
2019-02-14T04:57:59.321Z,1028.46
2019-02-14T04:58:59.332Z,1028.50
2019-02-14T04:59:59.302Z,1028.49
2019-02-14T05:00:59.290Z,1028.56
2019-02-14T05:01:59.277Z,1028.58
2019-02-14T05:02:59.264Z,1028.61
2019-02-14T05:03:59.270Z,1028.63
2019-02-14T05:04:59.244Z,1028.64
2019-02-14T05:05:59.230Z,1028.64
2019-02-14T05:06:59.224Z,1028.61
2019-02-14T05:07:59.210Z,1028.67
2019-02-14T05:08:59.228Z,1028.66
2019-02-14T05:09:59.186Z,1028.69
2019-02-14T05:10:59.184Z,1028.72
2019-02-14T05:11:59.164Z,1028.74
2019-02-14T05:12:59.152Z,1028.77
2019-02-14T05:13:59.162Z,1028.80
2019-02-14T05:14:59.128Z,1028.79
2019-02-14T05:15:59.119Z,1028.80
2019-02-14T05:16:59.104Z,1028.80
2019-02-14T05:17:59.098Z,1028.81
2019-02-14T05:18:59.108Z,1028.84
2019-02-14T05:19:59.098Z,1028.83
2019-02-14T05:20:59.060Z,1028.86
2019-02-14T05:21:59.046Z,1028.89
2019-02-14T05:22:59.037Z,1028.88
2019-02-14T05:23:59.053Z,1028.80
2019-02-14T05:24:59.017Z,1028.76
2019-02-14T05:25:59.019Z,1028.81
2019-02-14T05:26:58.997Z,1028.77
2019-02-14T05:27:58.977Z,1028.70
2019-02-14T05:28:58.997Z,1028.72
2019-02-14T05:29:58.956Z,1028.71
2019-02-14T05:30:58.948Z,1028.69
2019-02-14T05:31:58.937Z,1028.74
2019-02-14T05:32:58.929Z,1028.76
2019-02-14T05:33:58.918Z,1028.78
2019-02-14T05:34:58.917Z,1028.77
2019-02-14T05:35:58.895Z,1028.76
2019-02-14T05:36:58.878Z,1028.74
2019-02-14T05:37:58.863Z,1028.71
2019-02-14T05:38:58.854Z,1028.72
2019-02-14T05:39:58.871Z,1028.75
2019-02-14T05:40:58.828Z,1028.72
2019-02-14T05:41:58.821Z,1028.64
2019-02-14T05:42:58.815Z,1028.68
2019-02-14T05:43:58.801Z,1028.62
2019-02-14T05:44:58.803Z,1028.61
2019-02-14T05:45:58.771Z,1028.65
2019-02-14T05:46:58.763Z,1028.69
2019-02-14T05:47:58.755Z,1028.65
2019-02-14T05:48:58.743Z,1028.66
2019-02-14T05:49:58.744Z,1028.70
2019-02-14T05:50:58.747Z,1028.68
2019-02-14T05:51:58.703Z,1028.65
2019-02-14T05:52:58.692Z,1028.69
2019-02-14T05:53:58.681Z,1028.67
2019-02-14T05:54:58.693Z,1028.65
2019-02-14T05:55:58.659Z,1028.67
2019-02-14T05:56:58.661Z,1028.57
2019-02-14T05:57:58.641Z,1028.55
2019-02-14T05:58:58.634Z,1028.48
2019-02-14T05:59:58.639Z,1028.46
2019-02-14T06:00:58.603Z,1028.48
2019-02-14T06:01:58.591Z,1028.47
2019-02-14T06:02:58.581Z,1028.46
2019-02-14T06:03:58.579Z,1028.50
2019-02-14T06:04:58.579Z,1028.49
2019-02-14T06:05:58.544Z,1028.53
2019-02-14T06:07:01.196Z,1028.52
2019-02-14T06:07:58.525Z,1028.59
2019-02-14T06:08:58.514Z,1028.56
2019-02-14T06:09:58.553Z,1028.64
2019-02-14T06:10:58.489Z,1028.66
2019-02-14T06:11:58.475Z,1028.65
2019-02-14T06:12:58.473Z,1028.75
2019-02-14T06:13:58.453Z,1028.67
2019-02-14T06:14:58.457Z,1028.71
2019-02-14T06:15:58.460Z,1028.75
2019-02-14T06:16:58.421Z,1028.68
2019-02-14T06:17:58.431Z,1028.69
2019-02-14T06:18:58.455Z,1028.68
2019-02-14T06:19:58.407Z,1028.71
2019-02-14T06:20:58.380Z,1028.77
2019-02-14T06:21:58.387Z,1028.78
2019-02-14T06:22:58.361Z,1028.87
2019-02-14T06:23:58.358Z,1028.90
2019-02-14T06:24:58.382Z,1028.94
2019-02-14T06:25:58.325Z,1028.96
2019-02-14T06:26:58.301Z,1029.00
2019-02-14T06:27:58.299Z,1029.04
2019-02-14T06:28:58.282Z,1029.05
2019-02-14T06:29:58.278Z,1029.08
2019-02-14T06:30:58.281Z,1029.11
2019-02-14T06:31:58.248Z,1029.09
2019-02-14T06:32:58.236Z,1029.12
2019-02-14T06:33:58.223Z,1029.14
2019-02-14T06:34:58.214Z,1029.14
2019-02-14T06:35:58.228Z,1029.14
2019-02-14T06:36:58.195Z,1029.14
2019-02-14T06:37:58.194Z,1029.11
2019-02-14T06:38:58.171Z,1029.06
2019-02-14T06:39:58.155Z,1029.04
2019-02-14T06:40:58.165Z,1029.01
2019-02-14T06:41:58.138Z,1029.01
2019-02-14T06:42:58.169Z,1029.03
2019-02-14T06:43:58.121Z,1029.01
2019-02-14T06:44:58.117Z,1028.99
2019-02-14T06:45:58.113Z,1029.01
2019-02-14T06:46:58.080Z,1028.96
2019-02-14T06:47:58.082Z,1028.98
2019-02-14T06:48:58.061Z,1029.01
2019-02-14T06:49:58.044Z,1028.98
2019-02-14T06:50:58.078Z,1028.96
2019-02-14T06:51:58.029Z,1029.04
2019-02-14T06:52:58.016Z,1029.03
2019-02-14T06:53:57.999Z,1029.00
2019-02-14T06:54:57.996Z,1029.09
2019-02-14T06:55:57.978Z,1029.13
2019-02-14T06:56:57.982Z,1029.14
2019-02-14T06:57:57.956Z,1029.20
2019-02-14T06:58:57.948Z,1029.21
2019-02-14T06:59:57.943Z,1029.21
2019-02-14T07:00:57.931Z,1029.23
2019-02-14T07:01:58.122Z,1029.22
2019-02-14T07:02:57.900Z,1029.24
2019-02-14T07:03:57.885Z,1029.29
2019-02-14T07:04:57.883Z,1029.30
2019-02-14T07:05:57.878Z,1029.30
2019-02-14T07:06:58.132Z,1029.33
2019-02-14T07:07:57.891Z,1029.39
2019-02-14T07:08:57.829Z,1029.40
2019-02-14T07:09:57.834Z,1029.46
2019-02-14T07:10:57.807Z,1029.47
2019-02-14T07:11:57.933Z,1029.46
2019-02-14T07:12:57.816Z,1029.46
2019-02-14T07:13:57.780Z,1029.51
2019-02-14T07:14:57.769Z,1029.49
2019-02-14T07:15:57.800Z,1029.44
2019-02-14T07:16:58.604Z,1029.48
2019-02-14T07:17:57.743Z,1029.46
2019-02-14T07:18:57.749Z,1029.45
2019-02-14T07:19:57.714Z,1029.48
2019-02-14T07:20:57.693Z,1029.50
2019-02-14T07:21:57.704Z,1029.48
2019-02-14T07:22:57.740Z,1029.52
2019-02-14T07:23:57.686Z,1029.52
2019-02-14T07:24:57.682Z,1029.56
2019-02-14T07:25:57.643Z,1029.57
2019-02-14T07:26:57.692Z,1029.58
2019-02-14T07:27:57.635Z,1029.57
2019-02-14T07:28:57.622Z,1029.57
2019-02-14T07:29:57.601Z,1029.56
2019-02-14T07:30:57.638Z,1029.61
2019-02-14T07:31:57.574Z,1029.65
2019-02-14T07:32:57.617Z,1029.62
2019-02-14T07:33:57.548Z,1029.63
2019-02-14T07:34:57.555Z,1029.63
2019-02-14T07:35:57.524Z,1029.59
2019-02-14T07:36:57.519Z,1029.59
2019-02-14T07:37:57.528Z,1029.54
2019-02-14T07:38:57.500Z,1029.53
2019-02-14T07:39:57.492Z,1029.49
2019-02-14T07:40:57.498Z,1029.48
2019-02-14T07:41:57.462Z,1029.46
2019-02-14T07:42:57.469Z,1029.48
2019-02-14T07:43:57.441Z,1029.46
2019-02-14T07:44:57.433Z,1029.49
2019-02-14T07:45:57.434Z,1029.55
2019-02-14T07:46:57.438Z,1029.57
2019-02-14T07:47:57.443Z,1029.60
2019-02-14T07:48:57.378Z,1029.53
2019-02-14T07:49:57.371Z,1029.56
2019-02-14T07:50:57.356Z,1029.49
2019-02-14T07:51:57.351Z,1029.53
2019-02-14T07:52:57.336Z,1029.52
2019-02-14T07:53:57.390Z,1029.48
2019-02-14T07:54:57.359Z,1029.47
2019-02-14T07:55:57.336Z,1029.48
2019-02-14T07:56:57.296Z,1029.43
2019-02-14T07:57:57.281Z,1029.45
2019-02-14T07:58:57.297Z,1029.47
2019-02-14T07:59:57.256Z,1029.50
2019-02-14T08:00:57.255Z,1029.49
2019-02-14T08:01:57.247Z,1029.51
2019-02-14T08:02:57.238Z,1029.50
2019-02-14T08:03:57.234Z,1029.47
2019-02-14T08:04:57.201Z,1029.48
2019-02-14T08:05:57.193Z,1029.45
2019-02-14T08:06:57.221Z,1029.51
2019-02-14T08:07:57.195Z,1029.51
2019-02-14T08:08:57.178Z,1029.46
2019-02-14T08:09:57.150Z,1029.53
2019-02-14T08:10:57.140Z,1029.54
2019-02-14T08:11:57.127Z,1029.51
2019-02-14T08:12:57.108Z,1029.52
2019-02-14T08:13:57.117Z,1029.51
2019-02-14T08:14:57.094Z,1029.49
2019-02-14T08:15:57.073Z,1029.43
2019-02-14T08:16:57.067Z,1029.49
2019-02-14T08:17:57.077Z,1029.47
2019-02-14T08:18:57.066Z,1029.46
2019-02-14T08:19:57.035Z,1029.45
2019-02-14T08:20:57.023Z,1029.43
2019-02-14T08:21:57.011Z,1029.37
2019-02-14T08:22:57.004Z,1029.42
2019-02-14T08:23:57.008Z,1029.42
2019-02-14T08:24:56.975Z,1029.38
2019-02-14T08:25:56.974Z,1029.40
2019-02-14T08:26:56.959Z,1029.33
2019-02-14T08:27:56.941Z,1029.39
2019-02-14T08:28:56.966Z,1029.29
2019-02-14T08:29:56.920Z,1029.33
2019-02-14T08:30:56.914Z,1029.31
2019-02-14T08:31:56.897Z,1029.30
2019-02-14T08:32:56.887Z,1029.25
2019-02-14T08:33:56.887Z,1029.30
2019-02-14T08:34:56.864Z,1029.26
2019-02-14T08:35:56.854Z,1029.26
2019-02-14T08:36:56.856Z,1029.26
2019-02-14T08:37:56.845Z,1029.27
2019-02-14T08:38:56.832Z,1029.22
2019-02-14T08:39:56.805Z,1029.24
2019-02-14T08:40:56.881Z,1029.25
2019-02-14T08:41:56.789Z,1029.24
2019-02-14T08:42:58.587Z,1029.25
2019-02-14T08:43:56.786Z,1029.27
2019-02-14T08:44:56.749Z,1029.33
2019-02-14T08:45:56.738Z,1029.34
2019-02-14T08:46:56.729Z,1029.32
2019-02-14T08:47:56.720Z,1029.32
2019-02-14T08:48:56.752Z,1029.28
2019-02-14T08:49:56.693Z,1029.30
2019-02-14T08:50:56.854Z,1029.23
2019-02-14T08:51:56.680Z,1029.26
2019-02-14T08:52:56.667Z,1029.28
2019-02-14T08:53:56.654Z,1029.22
2019-02-14T08:54:56.660Z,1029.18
2019-02-14T08:55:56.633Z,1029.21
2019-02-14T08:56:56.617Z,1029.20
2019-02-14T08:57:56.602Z,1029.15
2019-02-14T08:58:56.594Z,1029.18
2019-02-14T08:59:56.606Z,1029.24
2019-02-14T09:00:56.571Z,1029.23
2019-02-14T09:01:57.595Z,1029.25
2019-02-14T09:02:56.572Z,1029.22
2019-02-14T09:03:56.539Z,1029.24
2019-02-14T09:04:56.552Z,1029.20
2019-02-14T09:05:56.527Z,1029.24
2019-02-14T09:06:56.509Z,1029.28
2019-02-14T09:07:56.497Z,1029.29
2019-02-14T09:08:56.483Z,1029.32
2019-02-14T09:09:56.488Z,1029.39
2019-02-14T09:10:56.462Z,1029.37
2019-02-14T09:11:56.458Z,1029.36
2019-02-14T09:12:56.445Z,1029.38
2019-02-14T09:13:56.432Z,1029.39
2019-02-14T09:14:56.429Z,1029.42
2019-02-14T09:15:56.407Z,1029.41
2019-02-14T09:16:56.401Z,1029.37
2019-02-14T09:17:56.388Z,1029.33
2019-02-14T09:18:56.370Z,1029.32
2019-02-14T09:19:56.381Z,1029.33
2019-02-14T09:20:56.348Z,1029.34
2019-02-14T09:21:56.338Z,1029.35
2019-02-14T09:22:56.323Z,1029.35
2019-02-14T09:23:56.321Z,1029.33
2019-02-14T09:24:56.316Z,1029.35
2019-02-14T09:25:56.286Z,1029.35
2019-02-14T09:26:56.286Z,1029.37
2019-02-14T09:27:56.264Z,1029.43
2019-02-14T09:28:56.255Z,1029.44
2019-02-14T09:29:56.260Z,1029.50
2019-02-14T09:30:56.395Z,1029.51
2019-02-14T09:31:56.227Z,1029.49
2019-02-14T09:32:56.213Z,1029.50
2019-02-14T09:33:56.194Z,1029.50
2019-02-14T09:34:56.213Z,1029.50
2019-02-14T09:35:56.174Z,1029.50
2019-02-14T09:36:56.168Z,1029.46
2019-02-14T09:38:03.002Z,1029.51
2019-02-14T09:38:57.138Z,1029.48
2019-02-14T09:39:56.157Z,1029.49
2019-02-14T09:40:56.124Z,1029.53
2019-02-14T09:41:56.106Z,1029.54
2019-02-14T09:42:56.098Z,1029.59
2019-02-14T09:43:56.105Z,1029.59
2019-02-14T09:44:56.077Z,1029.65
2019-02-14T09:45:56.080Z,1029.73
2019-02-14T09:46:56.045Z,1029.69
2019-02-14T09:47:56.038Z,1029.75
2019-02-14T09:48:56.027Z,1029.79
2019-02-14T09:49:56.023Z,1029.81
2019-02-14T09:50:56.032Z,1029.81
2019-02-14T09:51:55.990Z,1029.82
2019-02-14T09:52:55.987Z,1029.77
2019-02-14T09:53:55.978Z,1029.74
2019-02-14T09:54:55.956Z,1029.73
2019-02-14T09:55:55.966Z,1029.63
2019-02-14T09:56:55.946Z,1029.57
2019-02-14T09:57:55.927Z,1029.46
2019-02-14T09:58:55.943Z,1029.47
2019-02-14T09:59:55.908Z,1029.43
2019-02-14T10:00:55.932Z,1029.40
2019-02-14T10:01:55.876Z,1029.35
2019-02-14T10:02:55.860Z,1029.44
2019-02-14T10:03:55.860Z,1029.48
2019-02-14T10:04:55.845Z,1029.50
2019-02-14T10:05:55.850Z,1029.43
2019-02-14T10:06:55.826Z,1029.41
2019-02-14T10:07:55.812Z,1029.38
2019-02-14T10:08:55.798Z,1029.33
2019-02-14T10:09:55.786Z,1029.32
2019-02-14T10:10:55.819Z,1029.31
2019-02-14T10:11:55.764Z,1029.28
2019-02-14T10:12:55.760Z,1029.27
2019-02-14T10:13:55.738Z,1029.26
2019-02-14T10:14:55.724Z,1029.23
2019-02-14T10:15:55.740Z,1029.25
2019-02-14T10:16:55.705Z,1029.21
2019-02-14T10:17:55.696Z,1029.20
2019-02-14T10:18:55.681Z,1029.19
2019-02-14T10:19:55.672Z,1029.18
2019-02-14T10:20:55.676Z,1029.27
2019-02-14T10:21:55.646Z,1029.24
2019-02-14T10:22:55.637Z,1029.27
2019-02-14T10:23:55.634Z,1029.32
2019-02-14T10:24:55.614Z,1029.32
2019-02-14T10:25:55.647Z,1029.28
2019-02-14T10:26:55.591Z,1029.34
2019-02-14T10:27:55.574Z,1029.29
2019-02-14T10:28:55.568Z,1029.35
2019-02-14T10:29:55.566Z,1029.33
2019-02-14T10:30:55.578Z,1029.37
2019-02-14T10:31:55.550Z,1029.32
2019-02-14T10:32:55.523Z,1029.33
2019-02-14T10:33:55.568Z,1029.35
2019-02-14T10:34:55.500Z,1029.32
2019-02-14T10:35:55.486Z,1029.33
2019-02-14T10:36:55.493Z,1029.35
2019-02-14T10:37:55.461Z,1029.41
2019-02-14T10:38:55.452Z,1029.36
2019-02-14T10:39:55.438Z,1029.40
2019-02-14T10:40:55.433Z,1029.41
2019-02-14T10:41:55.445Z,1029.45
2019-02-14T10:42:55.411Z,1029.38
2019-02-14T10:43:55.400Z,1029.35
2019-02-14T10:44:55.384Z,1029.36
2019-02-14T10:45:55.378Z,1029.33
2019-02-14T10:46:55.375Z,1029.32
2019-02-14T10:47:55.349Z,1029.28
2019-02-14T10:48:55.341Z,1029.28
2019-02-14T10:49:55.334Z,1029.21
2019-02-14T10:50:55.317Z,1029.26
2019-02-14T10:51:55.329Z,1029.24
2019-02-14T10:52:55.297Z,1029.24
2019-02-14T10:53:55.287Z,1029.16
2019-02-14T10:54:55.272Z,1029.21
2019-02-14T10:55:55.262Z,1029.17
2019-02-14T10:56:55.265Z,1029.17
2019-02-14T10:57:55.247Z,1029.17
2019-02-14T10:58:55.225Z,1029.19
2019-02-14T10:59:55.215Z,1029.21
2019-02-14T11:00:55.197Z,1029.21
2019-02-14T11:01:55.221Z,1029.20
2019-02-14T11:02:55.176Z,1029.09
2019-02-14T11:03:55.163Z,1029.11
2019-02-14T11:04:55.157Z,1029.08
2019-02-14T11:05:55.141Z,1029.05
2019-02-14T11:06:55.145Z,1028.99
2019-02-14T11:07:55.126Z,1028.98
2019-02-14T11:08:55.115Z,1029.01
2019-02-14T11:09:55.095Z,1029.02
2019-02-14T11:10:55.086Z,1029.03
2019-02-14T11:11:55.093Z,1028.97
2019-02-14T11:12:55.069Z,1029.06
2019-02-14T11:13:55.058Z,1029.02
2019-02-14T11:14:55.045Z,1029.02
2019-02-14T11:15:55.033Z,1029.07
2019-02-14T11:16:55.033Z,1029.01
2019-02-14T11:17:55.005Z,1029.11
2019-02-14T11:18:54.989Z,1029.04
2019-02-14T11:19:54.984Z,1029.05
2019-02-14T11:20:54.971Z,1029.09
2019-02-14T11:21:54.990Z,1029.10
2019-02-14T11:22:54.954Z,1029.10
2019-02-14T11:23:54.937Z,1029.04
2019-02-14T11:24:54.937Z,1029.09
2019-02-14T11:25:54.935Z,1029.12
2019-02-14T11:26:54.905Z,1029.10
2019-02-14T11:27:54.917Z,1029.11
2019-02-14T11:28:54.880Z,1029.11
2019-02-14T11:29:54.873Z,1029.13
2019-02-14T11:30:54.857Z,1029.11
2019-02-14T11:31:54.862Z,1029.10
2019-02-14T11:32:54.906Z,1029.08
2019-02-14T11:33:54.821Z,1029.08
2019-02-14T11:34:54.808Z,1029.05
2019-02-14T11:35:54.800Z,1029.05
2019-02-14T11:36:54.786Z,1029.10
2019-02-14T11:37:54.808Z,1029.08
2019-02-14T11:38:54.778Z,1029.07
2019-02-14T11:39:54.753Z,1029.04
2019-02-14T11:40:54.747Z,1029.05
2019-02-14T11:41:54.776Z,1029.04
2019-02-14T11:42:54.737Z,1029.00
2019-02-14T11:43:54.709Z,1029.00
2019-02-14T11:44:54.691Z,1029.01
2019-02-14T11:45:54.686Z,1028.98
2019-02-14T11:46:54.692Z,1029.04
2019-02-14T11:47:54.715Z,1028.99
2019-02-14T11:48:54.651Z,1029.01
2019-02-14T11:49:54.654Z,1029.01
2019-02-14T11:50:54.628Z,1029.00
2019-02-14T11:51:54.618Z,1029.00
2019-02-14T11:52:54.631Z,1029.04
2019-02-14T11:53:54.603Z,1028.99
2019-02-14T11:54:54.580Z,1029.01
2019-02-14T11:55:54.567Z,1028.98
2019-02-14T11:56:54.561Z,1028.97
2019-02-14T11:57:54.583Z,1028.96
2019-02-14T11:58:54.535Z,1028.98
2019-02-14T11:59:54.520Z,1028.99
2019-02-14T12:00:54.643Z,1029.01
2019-02-14T12:01:55.618Z,1028.99
2019-02-14T12:02:55.866Z,1028.97
2019-02-14T12:03:54.480Z,1028.96
2019-02-14T12:04:54.477Z,1028.97